sensor_id;sensor_type;location;lat;lon;timestamp;temperature;humidity
6758;DHT22;3416;53.074;8.822;2023-06-04T00:00:55;13.70;99.90
6758;DHT22;3416;53.074;8.822;2023-06-04T00:03:23;13.70;99.90
6758;DHT22;3416;53.074;8.822;2023-06-04T00:05:50;13.70;99.90
6758;DHT22;3416;53.074;8.822;2023-06-04T00:08:16;13.70;99.90
6758;DHT22;3416;53.074;8.822;2023-06-04T00:10:43;13.70;99.90
6758;DHT22;3416;53.074;8.822;2023-06-04T00:13:10;13.70;99.90
6758;DHT22;3416;53.074;8.822;2023-06-04T00:15:39;13.90;99.90
6758;DHT22;3416;53.074;8.822;2023-06-04T00:18:06;13.80;99.90
6758;DHT22;3416;53.074;8.822;2023-06-04T00:20:33;13.80;99.90
6758;DHT22;3416;53.074;8.822;2023-06-04T00:23:00;13.80;99.90
6758;DHT22;3416;53.074;8.822;2023-06-04T00:25:26;13.90;99.90
6758;DHT22;3416;53.074;8.822;2023-06-04T00:27:53;13.60;99.90
6758;DHT22;3416;53.074;8.822;2023-06-04T00:30:20;13.60;99.90
6758;DHT22;3416;53.074;8.822;2023-06-04T00:32:50;13.60;99.90
6758;DHT22;3416;53.074;8.822;2023-06-04T00:35:16;13.60;99.90
6758;DHT22;3416;53.074;8.822;2023-06-04T00:37:44;13.60;99.90
6758;DHT22;3416;53.074;8.822;2023-06-04T00:40:11;13.60;99.90
6758;DHT22;3416;53.074;8.822;2023-06-04T00:42:38;13.60;99.90
6758;DHT22;3416;53.074;8.822;2023-06-04T00:45:06;13.60;99.90
6758;DHT22;3416;53.074;8.822;2023-06-04T00:47:35;13.60;99.90
6758;DHT22;3416;53.074;8.822;2023-06-04T00:50:05;13.60;99.90
6758;DHT22;3416;53.074;8.822;2023-06-04T00:52:35;13.60;99.90
6758;DHT22;3416;53.074;8.822;2023-06-04T00:55:02;13.60;99.90
6758;DHT22;3416;53.074;8.822;2023-06-04T00:57:31;13.60;99.90
6758;DHT22;3416;53.074;8.822;2023-06-04T00:59:58;13.50;99.90
6758;DHT22;3416;53.074;8.822;2023-06-04T01:02:25;13.40;99.90
6758;DHT22;3416;53.074;8.822;2023-06-04T01:04:57;13.30;99.90
6758;DHT22;3416;53.074;8.822;2023-06-04T01:07:30;13.10;99.90
6758;DHT22;3416;53.074;8.822;2023-06-04T01:09:57;13.00;99.90
6758;DHT22;3416;53.074;8.822;2023-06-04T01:12:25;12.90;99.90
6758;DHT22;3416;53.074;8.822;2023-06-04T01:14:52;12.90;99.90
6758;DHT22;3416;53.074;8.822;2023-06-04T01:17:21;12.70;99.90
6758;DHT22;3416;53.074;8.822;2023-06-04T01:20:20;12.70;99.90
6758;DHT22;3416;53.074;8.822;2023-06-04T01:23:03;12.60;99.90
6758;DHT22;3416;53.074;8.822;2023-06-04T01:25:33;12.50;99.90
6758;DHT22;3416;53.074;8.822;2023-06-04T01:28:05;12.50;99.90
6758;DHT22;3416;53.074;8.822;2023-06-04T01:30:34;12.40;99.90
6758;DHT22;3416;53.074;8.822;2023-06-04T01:33:02;12.40;99.90
6758;DHT22;3416;53.074;8.822;2023-06-04T01:35:29;12.30;99.90
6758;DHT22;3416;53.074;8.822;2023-06-04T01:37:58;12.40;99.90
6758;DHT22;3416;53.074;8.822;2023-06-04T01:40:25;12.30;99.90
6758;DHT22;3416;53.074;8.822;2023-06-04T01:42:52;12.20;99.90
6758;DHT22;3416;53.074;8.822;2023-06-04T01:45:21;12.20;99.90
6758;DHT22;3416;53.074;8.822;2023-06-04T01:47:48;12.20;99.90
6758;DHT22;3416;53.074;8.822;2023-06-04T01:50:15;12.10;99.90
6758;DHT22;3416;53.074;8.822;2023-06-04T01:52:42;12.10;99.90
6758;DHT22;3416;53.074;8.822;2023-06-04T01:55:12;12.00;99.90
6758;DHT22;3416;53.074;8.822;2023-06-04T01:57:40;12.10;99.90
6758;DHT22;3416;53.074;8.822;2023-06-04T02:00:08;12.00;99.90
6758;DHT22;3416;53.074;8.822;2023-06-04T02:02:36;12.00;99.90
6758;DHT22;3416;53.074;8.822;2023-06-04T02:05:04;12.00;99.90
6758;DHT22;3416;53.074;8.822;2023-06-04T02:07:33;12.00;99.90
6758;DHT22;3416;53.074;8.822;2023-06-04T02:10:00;12.00;99.90
6758;DHT22;3416;53.074;8.822;2023-06-04T02:12:28;12.00;99.90
6758;DHT22;3416;53.074;8.822;2023-06-04T02:14:55;11.90;99.90
6758;DHT22;3416;53.074;8.822;2023-06-04T02:17:22;11.90;99.90
6758;DHT22;3416;53.074;8.822;2023-06-04T02:19:49;11.80;99.90
6758;DHT22;3416;53.074;8.822;2023-06-04T02:22:17;11.80;99.90
6758;DHT22;3416;53.074;8.822;2023-06-04T02:24:44;11.80;99.90
6758;DHT22;3416;53.074;8.822;2023-06-04T02:27:12;11.80;99.90
6758;DHT22;3416;53.074;8.822;2023-06-04T02:29:41;11.80;99.90
6758;DHT22;3416;53.074;8.822;2023-06-04T02:32:09;11.70;99.90
6758;DHT22;3416;53.074;8.822;2023-06-04T02:34:36;11.70;99.90
6758;DHT22;3416;53.074;8.822;2023-06-04T02:37:03;11.80;99.90
6758;DHT22;3416;53.074;8.822;2023-06-04T02:39:30;11.80;99.90
6758;DHT22;3416;53.074;8.822;2023-06-04T02:41:57;11.70;99.90
6758;DHT22;3416;53.074;8.822;2023-06-04T02:44:24;11.70;99.90
6758;DHT22;3416;53.074;8.822;2023-06-04T02:46:54;11.70;99.90
6758;DHT22;3416;53.074;8.822;2023-06-04T02:49:21;11.60;99.90
6758;DHT22;3416;53.074;8.822;2023-06-04T02:51:50;11.70;99.90
6758;DHT22;3416;53.074;8.822;2023-06-04T02:54:17;11.60;99.90
6758;DHT22;3416;53.074;8.822;2023-06-04T02:56:43;11.60;99.90
6758;DHT22;3416;53.074;8.822;2023-06-04T02:59:11;11.60;99.90
6758;DHT22;3416;53.074;8.822;2023-06-04T03:01:39;11.60;99.90
6758;DHT22;3416;53.074;8.822;2023-06-04T03:04:07;11.60;99.90
6758;DHT22;3416;53.074;8.822;2023-06-04T03:06:35;11.60;99.90
6758;DHT22;3416;53.074;8.822;2023-06-04T03:09:04;11.60;99.90
6758;DHT22;3416;53.074;8.822;2023-06-04T03:11:30;11.60;99.90
6758;DHT22;3416;53.074;8.822;2023-06-04T03:13:57;11.50;99.90
6758;DHT22;3416;53.074;8.822;2023-06-04T03:16:24;11.50;99.90
6758;DHT22;3416;53.074;8.822;2023-06-04T03:18:51;11.50;99.90
6758;DHT22;3416;53.074;8.822;2023-06-04T03:21:20;11.50;99.90
6758;DHT22;3416;53.074;8.822;2023-06-04T03:23:47;11.50;99.90
6758;DHT22;3416;53.074;8.822;2023-06-04T03:26:13;11.50;99.90
6758;DHT22;3416;53.074;8.822;2023-06-04T03:28:40;11.50;99.90
6758;DHT22;3416;53.074;8.822;2023-06-04T03:31:08;11.50;99.90
6758;DHT22;3416;53.074;8.822;2023-06-04T03:33:35;11.50;99.90
6758;DHT22;3416;53.074;8.822;2023-06-04T03:36:02;11.60;99.90
6758;DHT22;3416;53.074;8.822;2023-06-04T03:38:30;11.60;99.90
6758;DHT22;3416;53.074;8.822;2023-06-04T03:40:57;11.60;99.90
6758;DHT22;3416;53.074;8.822;2023-06-04T03:43:24;11.60;99.90
6758;DHT22;3416;53.074;8.822;2023-06-04T03:45:51;11.70;99.90
6758;DHT22;3416;53.074;8.822;2023-06-04T03:48:18;11.70;99.90
6758;DHT22;3416;53.074;8.822;2023-06-04T03:50:45;11.70;99.90
6758;DHT22;3416;53.074;8.822;2023-06-04T03:53:13;11.80;99.90
6758;DHT22;3416;53.074;8.822;2023-06-04T03:55:41;11.80;99.90
6758;DHT22;3416;53.074;8.822;2023-06-04T03:58:08;11.90;99.90
6758;DHT22;3416;53.074;8.822;2023-06-04T04:00:36;11.90;99.90
6758;DHT22;3416;53.074;8.822;2023-06-04T04:03:03;12.00;99.90
6758;DHT22;3416;53.074;8.822;2023-06-04T04:05:33;12.10;99.90
6758;DHT22;3416;53.074;8.822;2023-06-04T04:08:01;12.20;99.90
6758;DHT22;3416;53.074;8.822;2023-06-04T04:10:28;12.60;99.90
6758;DHT22;3416;53.074;8.822;2023-06-04T04:12:56;13.40;99.90
6758;DHT22;3416;53.074;8.822;2023-06-04T04:15:23;14.10;99.90
6758;DHT22;3416;53.074;8.822;2023-06-04T04:17:50;14.80;99.90
6758;DHT22;3416;53.074;8.822;2023-06-04T04:20:18;15.60;99.90
6758;DHT22;3416;53.074;8.822;2023-06-04T04:22:45;16.10;99.90
6758;DHT22;3416;53.074;8.822;2023-06-04T04:25:11;16.90;99.40
6758;DHT22;3416;53.074;8.822;2023-06-04T04:27:38;17.40;97.20
6758;DHT22;3416;53.074;8.822;2023-06-04T04:30:11;18.00;95.60
6758;DHT22;3416;53.074;8.822;2023-06-04T04:32:42;18.50;94.40
6758;DHT22;3416;53.074;8.822;2023-06-04T04:35:14;19.00;93.00
6758;DHT22;3416;53.074;8.822;2023-06-04T04:37:43;19.40;91.90
6758;DHT22;3416;53.074;8.822;2023-06-04T04:40:12;19.90;91.30
6758;DHT22;3416;53.074;8.822;2023-06-04T04:42:39;20.60;90.50
6758;DHT22;3416;53.074;8.822;2023-06-04T04:45:08;21.00;88.40
6758;DHT22;3416;53.074;8.822;2023-06-04T04:47:37;21.40;86.80
6758;DHT22;3416;53.074;8.822;2023-06-04T04:50:04;21.60;84.90
6758;DHT22;3416;53.074;8.822;2023-06-04T04:52:31;22.10;83.70
6758;DHT22;3416;53.074;8.822;2023-06-04T04:54:58;22.50;82.40
6758;DHT22;3416;53.074;8.822;2023-06-04T04:57:26;22.70;81.70
6758;DHT22;3416;53.074;8.822;2023-06-04T04:59:53;23.10;80.00
6758;DHT22;3416;53.074;8.822;2023-06-04T05:02:20;23.40;79.10
6758;DHT22;3416;53.074;8.822;2023-06-04T05:04:49;23.90;78.60
6758;DHT22;3416;53.074;8.822;2023-06-04T05:07:16;24.20;77.10
6758;DHT22;3416;53.074;8.822;2023-06-04T05:09:43;24.30;76.10
6758;DHT22;3416;53.074;8.822;2023-06-04T05:12:09;24.60;75.30
6758;DHT22;3416;53.074;8.822;2023-06-04T05:14:36;24.80;74.80
6758;DHT22;3416;53.074;8.822;2023-06-04T05:17:03;24.90;74.10
6758;DHT22;3416;53.074;8.822;2023-06-04T05:19:32;25.00;73.90
6758;DHT22;3416;53.074;8.822;2023-06-04T05:22:00;25.10;73.40
6758;DHT22;3416;53.074;8.822;2023-06-04T05:24:30;25.30;72.80
6758;DHT22;3416;53.074;8.822;2023-06-04T05:26:58;25.40;72.40
6758;DHT22;3416;53.074;8.822;2023-06-04T05:29:25;25.40;72.00
6758;DHT22;3416;53.074;8.822;2023-06-04T05:31:52;25.60;72.00
6758;DHT22;3416;53.074;8.822;2023-06-04T05:34:18;25.60;71.40
6758;DHT22;3416;53.074;8.822;2023-06-04T05:36:46;25.90;71.40
6758;DHT22;3416;53.074;8.822;2023-06-04T05:39:15;26.00;70.40
6758;DHT22;3416;53.074;8.822;2023-06-04T05:41:42;26.30;69.90
6758;DHT22;3416;53.074;8.822;2023-06-04T05:44:09;26.30;70.00
6758;DHT22;3416;53.074;8.822;2023-06-04T05:46:36;26.50;68.90
6758;DHT22;3416;53.074;8.822;2023-06-04T05:49:03;26.60;68.40
6758;DHT22;3416;53.074;8.822;2023-06-04T05:51:30;26.60;69.10
6758;DHT22;3416;53.074;8.822;2023-06-04T05:53:58;26.70;68.40
6758;DHT22;3416;53.074;8.822;2023-06-04T05:56:26;27.10;67.80
6758;DHT22;3416;53.074;8.822;2023-06-04T05:58:53;27.50;66.80
6758;DHT22;3416;53.074;8.822;2023-06-04T06:01:20;27.80;66.10
6758;DHT22;3416;53.074;8.822;2023-06-04T06:03:47;28.10;65.10
6758;DHT22;3416;53.074;8.822;2023-06-04T06:06:14;28.00;64.70
6758;DHT22;3416;53.074;8.822;2023-06-04T06:08:41;28.10;64.60
6758;DHT22;3416;53.074;8.822;2023-06-04T06:11:08;28.20;64.20
6758;DHT22;3416;53.074;8.822;2023-06-04T06:13:36;28.50;64.00
6758;DHT22;3416;53.074;8.822;2023-06-04T06:16:03;28.80;63.20
6758;DHT22;3416;53.074;8.822;2023-06-04T06:18:30;28.80;62.90
6758;DHT22;3416;53.074;8.822;2023-06-04T06:20:58;29.10;62.60
6758;DHT22;3416;53.074;8.822;2023-06-04T06:23:25;29.00;62.00
6758;DHT22;3416;53.074;8.822;2023-06-04T06:25:51;29.10;62.30
6758;DHT22;3416;53.074;8.822;2023-06-04T06:28:18;29.50;61.40
6758;DHT22;3416;53.074;8.822;2023-06-04T06:30:47;29.50;60.00
6758;DHT22;3416;53.074;8.822;2023-06-04T06:33:14;29.60;60.70
6758;DHT22;3416;53.074;8.822;2023-06-04T06:35:41;29.60;60.20
6758;DHT22;3416;53.074;8.822;2023-06-04T06:38:11;30.10;59.60
6758;DHT22;3416;53.074;8.822;2023-06-04T06:40:39;30.50;58.60
6758;DHT22;3416;53.074;8.822;2023-06-04T06:43:06;30.60;58.50
6758;DHT22;3416;53.074;8.822;2023-06-04T06:45:34;30.90;57.40
6758;DHT22;3416;53.074;8.822;2023-06-04T06:48:03;31.10;56.80
6758;DHT22;3416;53.074;8.822;2023-06-04T06:50:32;30.80;56.90
6758;DHT22;3416;53.074;8.822;2023-06-04T06:53:01;30.60;56.50
6758;DHT22;3416;53.074;8.822;2023-06-04T06:55:28;30.80;56.50
6758;DHT22;3416;53.074;8.822;2023-06-04T06:57:55;30.60;56.50
6758;DHT22;3416;53.074;8.822;2023-06-04T07:00:22;30.30;56.90
6758;DHT22;3416;53.074;8.822;2023-06-04T07:02:49;30.20;57.30
6758;DHT22;3416;53.074;8.822;2023-06-04T07:05:17;30.40;56.90
6758;DHT22;3416;53.074;8.822;2023-06-04T07:07:44;30.50;56.50
6758;DHT22;3416;53.074;8.822;2023-06-04T07:10:12;30.60;56.60
6758;DHT22;3416;53.074;8.822;2023-06-04T07:12:39;30.70;56.60
6758;DHT22;3416;53.074;8.822;2023-06-04T07:15:06;31.00;56.50
6758;DHT22;3416;53.074;8.822;2023-06-04T07:17:34;31.10;55.80
6758;DHT22;3416;53.074;8.822;2023-06-04T07:20:01;31.30;55.30
6758;DHT22;3416;53.074;8.822;2023-06-04T07:22:31;31.10;54.90
6758;DHT22;3416;53.074;8.822;2023-06-04T07:24:57;31.10;55.10
6758;DHT22;3416;53.074;8.822;2023-06-04T07:27:25;31.40;54.70
6758;DHT22;3416;53.074;8.822;2023-06-04T07:29:52;31.30;55.10
6758;DHT22;3416;53.074;8.822;2023-06-04T07:32:19;31.40;54.50
6758;DHT22;3416;53.074;8.822;2023-06-04T07:34:47;31.40;54.60
6758;DHT22;3416;53.074;8.822;2023-06-04T07:37:13;31.30;54.40
6758;DHT22;3416;53.074;8.822;2023-06-04T07:39:43;31.40;54.50
6758;DHT22;3416;53.074;8.822;2023-06-04T07:42:10;31.30;54.40
6758;DHT22;3416;53.074;8.822;2023-06-04T07:44:37;31.40;54.40
6758;DHT22;3416;53.074;8.822;2023-06-04T07:47:04;31.60;54.40
6758;DHT22;3416;53.074;8.822;2023-06-04T07:49:31;31.80;53.80
6758;DHT22;3416;53.074;8.822;2023-06-04T07:51:58;31.60;54.20
6758;DHT22;3416;53.074;8.822;2023-06-04T07:54:25;31.60;54.10
6758;DHT22;3416;53.074;8.822;2023-06-04T07:56:55;31.30;53.80
6758;DHT22;3416;53.074;8.822;2023-06-04T07:59:23;31.50;54.70
6758;DHT22;3416;53.074;8.822;2023-06-04T08:01:50;31.80;54.40
6758;DHT22;3416;53.074;8.822;2023-06-04T08:04:17;32.50;52.20
6758;DHT22;3416;53.074;8.822;2023-06-04T08:06:44;32.70;52.00
6758;DHT22;3416;53.074;8.822;2023-06-04T08:09:12;32.70;52.10
6758;DHT22;3416;53.074;8.822;2023-06-04T08:11:40;32.70;52.10
6758;DHT22;3416;53.074;8.822;2023-06-04T08:14:09;32.40;51.90
6758;DHT22;3416;53.074;8.822;2023-06-04T08:16:37;32.80;51.00
6758;DHT22;3416;53.074;8.822;2023-06-04T08:19:04;32.70;49.50
6758;DHT22;3416;53.074;8.822;2023-06-04T08:21:32;32.90;50.30
6758;DHT22;3416;53.074;8.822;2023-06-04T08:24:00;33.00;48.90
6758;DHT22;3416;53.074;8.822;2023-06-04T08:26:27;33.00;49.20
6758;DHT22;3416;53.074;8.822;2023-06-04T08:28:55;32.60;49.80
6758;DHT22;3416;53.074;8.822;2023-06-04T08:31:24;32.80;49.80
6758;DHT22;3416;53.074;8.822;2023-06-04T08:33:51;32.40;49.80
6758;DHT22;3416;53.074;8.822;2023-06-04T08:36:18;32.60;49.60
6758;DHT22;3416;53.074;8.822;2023-06-04T08:38:45;32.60;48.60
6758;DHT22;3416;53.074;8.822;2023-06-04T08:41:20;32.00;49.30
6758;DHT22;3416;53.074;8.822;2023-06-04T08:43:50;32.00;50.30
6758;DHT22;3416;53.074;8.822;2023-06-04T08:46:17;32.30;49.30
6758;DHT22;3416;53.074;8.822;2023-06-04T08:48:47;32.70;49.70
6758;DHT22;3416;53.074;8.822;2023-06-04T08:51:15;32.90;49.00
6758;DHT22;3416;53.074;8.822;2023-06-04T08:53:43;32.80;47.30
6758;DHT22;3416;53.074;8.822;2023-06-04T08:56:13;33.00;46.60
6758;DHT22;3416;53.074;8.822;2023-06-04T08:58:40;33.10;45.90
6758;DHT22;3416;53.074;8.822;2023-06-04T09:01:08;33.20;46.50
6758;DHT22;3416;53.074;8.822;2023-06-04T09:03:36;32.80;45.30
6758;DHT22;3416;53.074;8.822;2023-06-04T09:06:06;32.40;46.00
6758;DHT22;3416;53.074;8.822;2023-06-04T09:08:35;32.40;45.60
6758;DHT22;3416;53.074;8.822;2023-06-04T09:11:05;32.00;44.20
6758;DHT22;3416;53.074;8.822;2023-06-04T09:13:34;31.50;46.80
6758;DHT22;3416;53.074;8.822;2023-06-04T09:16:03;31.60;47.20
6758;DHT22;3416;53.074;8.822;2023-06-04T09:18:31;31.90;43.60
6758;DHT22;3416;53.074;8.822;2023-06-04T09:21:03;31.80;44.00
6758;DHT22;3416;53.074;8.822;2023-06-04T09:23:34;32.00;44.90
6758;DHT22;3416;53.074;8.822;2023-06-04T09:26:08;32.20;45.40
6758;DHT22;3416;53.074;8.822;2023-06-04T09:28:35;31.80;44.10
6758;DHT22;3416;53.074;8.822;2023-06-04T09:31:02;31.70;44.20
6758;DHT22;3416;53.074;8.822;2023-06-04T09:33:29;31.60;44.00
6758;DHT22;3416;53.074;8.822;2023-06-04T09:35:57;31.20;43.70
6758;DHT22;3416;53.074;8.822;2023-06-04T09:38:34;31.10;44.70
6758;DHT22;3416;53.074;8.822;2023-06-04T09:41:01;31.60;44.70
6758;DHT22;3416;53.074;8.822;2023-06-04T09:43:30;32.00;43.50
6758;DHT22;3416;53.074;8.822;2023-06-04T09:46:09;31.90;42.90
6758;DHT22;3416;53.074;8.822;2023-06-04T09:48:36;31.30;43.40
6758;DHT22;3416;53.074;8.822;2023-06-04T09:51:07;30.90;44.80
6758;DHT22;3416;53.074;8.822;2023-06-04T09:53:36;30.70;45.20
6758;DHT22;3416;53.074;8.822;2023-06-04T09:56:04;30.50;44.70
6758;DHT22;3416;53.074;8.822;2023-06-04T09:58:32;30.00;45.60
6758;DHT22;3416;53.074;8.822;2023-06-04T10:01:01;29.30;45.40
6758;DHT22;3416;53.074;8.822;2023-06-04T10:03:30;29.40;47.00
6758;DHT22;3416;53.074;8.822;2023-06-04T10:05:59;29.60;47.50
6758;DHT22;3416;53.074;8.822;2023-06-04T10:08:27;29.70;47.50
6758;DHT22;3416;53.074;8.822;2023-06-04T10:10:59;30.00;47.20
6758;DHT22;3416;53.074;8.822;2023-06-04T10:13:27;30.40;46.30
6758;DHT22;3416;53.074;8.822;2023-06-04T10:15:57;30.90;45.10
6758;DHT22;3416;53.074;8.822;2023-06-04T10:18:27;30.90;44.90
6758;DHT22;3416;53.074;8.822;2023-06-04T10:20:55;31.10;43.80
6758;DHT22;3416;53.074;8.822;2023-06-04T10:23:23;30.90;43.60
6758;DHT22;3416;53.074;8.822;2023-06-04T10:25:50;30.60;43.50
6758;DHT22;3416;53.074;8.822;2023-06-04T10:28:22;30.20;43.60
6758;DHT22;3416;53.074;8.822;2023-06-04T10:30:49;29.80;44.90
6758;DHT22;3416;53.074;8.822;2023-06-04T10:33:18;29.40;45.30
6758;DHT22;3416;53.074;8.822;2023-06-04T10:35:49;29.30;46.00
6758;DHT22;3416;53.074;8.822;2023-06-04T10:38:17;28.70;45.60
6758;DHT22;3416;53.074;8.822;2023-06-04T10:40:44;28.20;45.70
6758;DHT22;3416;53.074;8.822;2023-06-04T10:43:12;27.90;46.10
6758;DHT22;3416;53.074;8.822;2023-06-04T10:45:41;27.40;47.00
6758;DHT22;3416;53.074;8.822;2023-06-04T10:48:09;26.90;46.90
6758;DHT22;3416;53.074;8.822;2023-06-04T10:50:48;26.80;48.90
6758;DHT22;3416;53.074;8.822;2023-06-04T10:53:16;26.70;48.50
6758;DHT22;3416;53.074;8.822;2023-06-04T10:55:44;26.70;47.50
6758;DHT22;3416;53.074;8.822;2023-06-04T10:58:11;26.50;47.80
6758;DHT22;3416;53.074;8.822;2023-06-04T11:00:41;26.00;49.10
6758;DHT22;3416;53.074;8.822;2023-06-04T11:03:10;26.00;49.60
6758;DHT22;3416;53.074;8.822;2023-06-04T11:05:38;26.10;49.50
6758;DHT22;3416;53.074;8.822;2023-06-04T11:08:07;26.20;49.80
6758;DHT22;3416;53.074;8.822;2023-06-04T11:10:36;26.20;49.90
6758;DHT22;3416;53.074;8.822;2023-06-04T11:13:04;26.10;49.70
6758;DHT22;3416;53.074;8.822;2023-06-04T11:15:41;26.00;50.60
6758;DHT22;3416;53.074;8.822;2023-06-04T11:18:08;25.50;50.60
6758;DHT22;3416;53.074;8.822;2023-06-04T11:20:35;25.40;51.30
6758;DHT22;3416;53.074;8.822;2023-06-04T11:23:02;25.50;51.20
6758;DHT22;3416;53.074;8.822;2023-06-04T11:25:30;25.60;50.80
6758;DHT22;3416;53.074;8.822;2023-06-04T11:27:59;25.50;51.40
6758;DHT22;3416;53.074;8.822;2023-06-04T11:30:27;25.50;52.60
6758;DHT22;3416;53.074;8.822;2023-06-04T11:33:03;25.50;52.80
6758;DHT22;3416;53.074;8.822;2023-06-04T11:35:31;25.50;52.50
6758;DHT22;3416;53.074;8.822;2023-06-04T11:37:58;25.60;52.30
6758;DHT22;3416;53.074;8.822;2023-06-04T11:40:25;25.70;52.60
6758;DHT22;3416;53.074;8.822;2023-06-04T11:42:53;25.70;51.90
6758;DHT22;3416;53.074;8.822;2023-06-04T11:45:21;25.60;52.10
6758;DHT22;3416;53.074;8.822;2023-06-04T11:47:52;25.30;52.40
6758;DHT22;3416;53.074;8.822;2023-06-04T11:50:22;25.30;52.50
6758;DHT22;3416;53.074;8.822;2023-06-04T11:52:52;25.20;52.40
6758;DHT22;3416;53.074;8.822;2023-06-04T11:55:19;25.20;51.80
6758;DHT22;3416;53.074;8.822;2023-06-04T11:57:48;25.10;51.70
6758;DHT22;3416;53.074;8.822;2023-06-04T12:00:16;25.00;52.00
6758;DHT22;3416;53.074;8.822;2023-06-04T12:02:51;25.00;52.10
6758;DHT22;3416;53.074;8.822;2023-06-04T12:05:19;24.80;52.20
6758;DHT22;3416;53.074;8.822;2023-06-04T12:07:50;24.60;52.10
6758;DHT22;3416;53.074;8.822;2023-06-04T12:10:17;24.40;52.50
6758;DHT22;3416;53.074;8.822;2023-06-04T12:12:44;24.40;53.00
6758;DHT22;3416;53.074;8.822;2023-06-04T12:15:18;24.40;52.70
6758;DHT22;3416;53.074;8.822;2023-06-04T12:17:51;24.60;52.60
6758;DHT22;3416;53.074;8.822;2023-06-04T12:20:31;24.70;52.70
6758;DHT22;3416;53.074;8.822;2023-06-04T12:23:00;24.80;52.10
6758;DHT22;3416;53.074;8.822;2023-06-04T12:25:28;24.80;52.10
6758;DHT22;3416;53.074;8.822;2023-06-04T12:27:55;24.80;52.40
6758;DHT22;3416;53.074;8.822;2023-06-04T12:30:22;24.80;53.40
6758;DHT22;3416;53.074;8.822;2023-06-04T12:32:49;24.70;53.40
6758;DHT22;3416;53.074;8.822;2023-06-04T12:35:17;24.70;52.90
6758;DHT22;3416;53.074;8.822;2023-06-04T12:37:44;24.70;52.30
6758;DHT22;3416;53.074;8.822;2023-06-04T12:40:12;24.70;53.30
6758;DHT22;3416;53.074;8.822;2023-06-04T12:42:39;24.70;53.10
6758;DHT22;3416;53.074;8.822;2023-06-04T12:45:07;24.80;53.00
6758;DHT22;3416;53.074;8.822;2023-06-04T12:47:35;24.70;52.50
6758;DHT22;3416;53.074;8.822;2023-06-04T12:50:02;24.80;52.60
6758;DHT22;3416;53.074;8.822;2023-06-04T12:52:29;24.80;52.60
6758;DHT22;3416;53.074;8.822;2023-06-04T12:54:56;24.80;52.00
6758;DHT22;3416;53.074;8.822;2023-06-04T12:57:24;24.70;52.20
6758;DHT22;3416;53.074;8.822;2023-06-04T12:59:51;24.70;52.20
6758;DHT22;3416;53.074;8.822;2023-06-04T13:02:18;24.60;52.40
6758;DHT22;3416;53.074;8.822;2023-06-04T13:04:45;24.60;52.70
6758;DHT22;3416;53.074;8.822;2023-06-04T13:07:12;24.50;52.50
6758;DHT22;3416;53.074;8.822;2023-06-04T13:09:39;24.40;52.10
6758;DHT22;3416;53.074;8.822;2023-06-04T13:12:06;24.40;52.50
6758;DHT22;3416;53.074;8.822;2023-06-04T13:14:36;24.10;52.90
6758;DHT22;3416;53.074;8.822;2023-06-04T13:17:03;24.00;53.40
6758;DHT22;3416;53.074;8.822;2023-06-04T13:19:30;24.00;53.30
6758;DHT22;3416;53.074;8.822;2023-06-04T13:21:57;24.00;53.80
6758;DHT22;3416;53.074;8.822;2023-06-04T13:24:24;23.90;53.40
6758;DHT22;3416;53.074;8.822;2023-06-04T13:26:51;24.00;53.80
6758;DHT22;3416;53.074;8.822;2023-06-04T13:29:18;24.20;53.40
6758;DHT22;3416;53.074;8.822;2023-06-04T13:31:49;24.40;54.30
6758;DHT22;3416;53.074;8.822;2023-06-04T13:34:16;24.40;55.70
6758;DHT22;3416;53.074;8.822;2023-06-04T13:36:43;24.40;55.80
6758;DHT22;3416;53.074;8.822;2023-06-04T13:39:10;24.30;56.50
6758;DHT22;3416;53.074;8.822;2023-06-04T13:41:37;24.20;55.90
6758;DHT22;3416;53.074;8.822;2023-06-04T13:44:03;24.10;57.60
6758;DHT22;3416;53.074;8.822;2023-06-04T13:46:32;24.00;61.30
6758;DHT22;3416;53.074;8.822;2023-06-04T13:49:00;24.00;63.80
6758;DHT22;3416;53.074;8.822;2023-06-04T13:51:27;23.90;64.70
6758;DHT22;3416;53.074;8.822;2023-06-04T13:53:55;23.90;64.20
6758;DHT22;3416;53.074;8.822;2023-06-04T13:56:22;23.80;64.30
6758;DHT22;3416;53.074;8.822;2023-06-04T13:58:49;23.80;64.20
6758;DHT22;3416;53.074;8.822;2023-06-04T14:01:16;23.80;63.30
6758;DHT22;3416;53.074;8.822;2023-06-04T14:03:43;23.80;62.60
6758;DHT22;3416;53.074;8.822;2023-06-04T14:06:12;23.80;64.10
6758;DHT22;3416;53.074;8.822;2023-06-04T14:08:39;23.80;65.20
6758;DHT22;3416;53.074;8.822;2023-06-04T14:11:07;24.00;66.00
6758;DHT22;3416;53.074;8.822;2023-06-04T14:13:37;24.10;66.40
6758;DHT22;3416;53.074;8.822;2023-06-04T14:16:04;24.20;64.90
6758;DHT22;3416;53.074;8.822;2023-06-04T14:18:31;24.20;62.60
6758;DHT22;3416;53.074;8.822;2023-06-04T14:20:58;24.10;62.60
6758;DHT22;3416;53.074;8.822;2023-06-04T14:23:26;24.10;63.20
6758;DHT22;3416;53.074;8.822;2023-06-04T14:25:54;23.90;66.40
6758;DHT22;3416;53.074;8.822;2023-06-04T14:28:21;23.70;67.90
6758;DHT22;3416;53.074;8.822;2023-06-04T14:30:48;23.60;68.30
6758;DHT22;3416;53.074;8.822;2023-06-04T14:33:15;23.60;68.30
6758;DHT22;3416;53.074;8.822;2023-06-04T14:35:42;23.60;68.30
6758;DHT22;3416;53.074;8.822;2023-06-04T14:38:12;23.70;69.60
6758;DHT22;3416;53.074;8.822;2023-06-04T14:40:41;23.60;69.60
6758;DHT22;3416;53.074;8.822;2023-06-04T14:43:09;23.60;70.40
6758;DHT22;3416;53.074;8.822;2023-06-04T14:45:36;23.70;70.60
6758;DHT22;3416;53.074;8.822;2023-06-04T14:48:05;23.70;68.70
6758;DHT22;3416;53.074;8.822;2023-06-04T14:50:32;23.70;68.50
6758;DHT22;3416;53.074;8.822;2023-06-04T14:52:59;23.70;69.80
6758;DHT22;3416;53.074;8.822;2023-06-04T14:55:26;23.70;70.30
6758;DHT22;3416;53.074;8.822;2023-06-04T14:57:54;23.60;70.60
6758;DHT22;3416;53.074;8.822;2023-06-04T15:00:21;23.60;70.40
6758;DHT22;3416;53.074;8.822;2023-06-04T15:02:48;23.50;70.80
6758;DHT22;3416;53.074;8.822;2023-06-04T15:05:15;23.50;71.20
6758;DHT22;3416;53.074;8.822;2023-06-04T15:07:42;23.50;71.10
6758;DHT22;3416;53.074;8.822;2023-06-04T15:10:09;23.50;71.20
6758;DHT22;3416;53.074;8.822;2023-06-04T15:12:36;23.30;71.50
6758;DHT22;3416;53.074;8.822;2023-06-04T15:15:07;23.30;71.60
6758;DHT22;3416;53.074;8.822;2023-06-04T15:17:34;23.20;71.80
6758;DHT22;3416;53.074;8.822;2023-06-04T15:20:02;23.10;72.00
6758;DHT22;3416;53.074;8.822;2023-06-04T15:22:29;23.00;71.90
6758;DHT22;3416;53.074;8.822;2023-06-04T15:24:56;22.90;73.10
6758;DHT22;3416;53.074;8.822;2023-06-04T15:27:23;22.80;73.10
6758;DHT22;3416;53.074;8.822;2023-06-04T15:29:49;22.70;73.30
6758;DHT22;3416;53.074;8.822;2023-06-04T15:32:19;22.80;73.50
6758;DHT22;3416;53.074;8.822;2023-06-04T15:34:47;22.70;73.80
6758;DHT22;3416;53.074;8.822;2023-06-04T15:37:14;22.80;74.20
6758;DHT22;3416;53.074;8.822;2023-06-04T15:39:41;22.80;74.10
6758;DHT22;3416;53.074;8.822;2023-06-04T15:42:07;22.80;73.60
6758;DHT22;3416;53.074;8.822;2023-06-04T15:44:35;22.70;73.90
6758;DHT22;3416;53.074;8.822;2023-06-04T15:47:02;22.80;74.00
6758;DHT22;3416;53.074;8.822;2023-06-04T15:49:30;22.70;73.60
6758;DHT22;3416;53.074;8.822;2023-06-04T15:51:57;22.70;74.00
6758;DHT22;3416;53.074;8.822;2023-06-04T15:54:24;22.70;74.00
6758;DHT22;3416;53.074;8.822;2023-06-04T15:56:50;22.60;74.00
6758;DHT22;3416;53.074;8.822;2023-06-04T15:59:17;22.50;74.10
6758;DHT22;3416;53.074;8.822;2023-06-04T16:01:44;22.40;74.50
6758;DHT22;3416;53.074;8.822;2023-06-04T16:04:12;22.30;74.10
6758;DHT22;3416;53.074;8.822;2023-06-04T16:06:40;22.20;74.60